createdAt,value
2023-05-08T00:00:32.669Z,95.8039
2023-05-08T00:01:35.506Z,95.6955
2023-05-08T00:02:38.529Z,95.4866
2023-05-08T00:03:41.724Z,95.4109
2023-05-08T00:04:44.648Z,95.3972
2023-05-08T00:05:47.469Z,95.5275
2023-05-08T00:06:50.298Z,95.4722
2023-05-08T00:07:53.149Z,95.0351
2023-05-08T00:08:56.035Z,94.8318
2023-05-08T00:09:58.867Z,95.1553
2023-05-08T00:11:01.932Z,95.1384
2023-05-08T00:12:04.759Z,94.7729
2023-05-08T00:13:07.644Z,94.6976
2023-05-08T00:14:10.456Z,94.7461
2023-05-08T00:15:13.289Z,94.9972
2023-05-08T00:16:16.207Z,95.5172
2023-05-08T00:17:19.035Z,95.7970
2023-05-08T00:18:21.884Z,96.0741
2023-05-08T00:19:24.745Z,95.8487
2023-05-08T00:20:27.563Z,96.0723
2023-05-08T00:21:30.378Z,96.4891
2023-05-08T00:22:33.212Z,96.3763
2023-05-08T00:23:36.064Z,96.6695
2023-05-08T00:24:38.894Z,96.8341
2023-05-08T00:25:39.074Z,96.8969
2023-05-08T00:26:41.895Z,97.0065
2023-05-08T00:27:44.753Z,97.1009
2023-05-08T00:28:47.557Z,97.1335
2023-05-08T00:29:50.380Z,97.0879
2023-05-08T00:30:53.415Z,96.8996
2023-05-08T00:31:56.315Z,96.6722
2023-05-08T00:32:59.300Z,96.6541
2023-05-08T00:34:02.437Z,96.8561
2023-05-08T00:35:05.277Z,97.0546
2023-05-08T00:36:08.346Z,97.3068
2023-05-08T00:37:11.165Z,97.4779
2023-05-08T00:38:14.006Z,97.5859
2023-05-08T00:39:16.842Z,97.3245
2023-05-08T00:40:19.699Z,97.1487
2023-05-08T00:41:22.701Z,97.4192
2023-05-08T00:42:25.531Z,97.5805
2023-05-08T00:43:28.549Z,97.7819
2023-05-08T00:44:31.388Z,97.9439
2023-05-08T00:45:34.217Z,98.0911
2023-05-08T00:46:37.125Z,98.2267
2023-05-08T00:47:39.998Z,98.3539
2023-05-08T00:48:42.811Z,98.4081
2023-05-08T00:49:45.653Z,98.4818
2023-05-08T00:50:49.245Z,98.5491
2023-05-08T00:51:52.102Z,98.6125
2023-05-08T00:52:54.926Z,98.6727
2023-05-08T00:53:57.905Z,98.7103
2023-05-08T00:55:00.710Z,98.7316
2023-05-08T00:56:03.863Z,98.7599
2023-05-08T00:57:06.757Z,98.7831
2023-05-08T00:58:09.618Z,98.7612
2023-05-08T00:59:12.480Z,98.8263
2023-05-08T01:00:15.438Z,98.8839
2023-05-08T01:01:18.311Z,98.9097
2023-05-08T01:02:21.147Z,98.9023
2023-05-08T01:03:24.147Z,98.9430
2023-05-08T01:04:27.131Z,98.9858
2023-05-08T01:05:30.006Z,98.9876
2023-05-08T01:06:33.029Z,98.9550
2023-05-08T01:07:35.893Z,98.8722
2023-05-08T01:08:38.797Z,98.8421
2023-05-08T01:09:41.653Z,98.8607
2023-05-08T01:10:44.520Z,98.8901
2023-05-08T01:11:47.402Z,98.8576
2023-05-08T01:12:50.335Z,98.8485
2023-05-08T01:13:53.193Z,98.8497
2023-05-08T01:14:56.072Z,98.8201
2023-05-08T01:15:59.077Z,98.8647
2023-05-08T01:17:01.965Z,98.9347
2023-05-08T01:18:04.932Z,98.9753
2023-05-08T01:19:07.849Z,98.9689
2023-05-08T01:20:10.854Z,98.9971
2023-05-08T01:21:13.781Z,99.0314
2023-05-08T01:22:16.653Z,99.0414
2023-05-08T01:23:19.560Z,98.9828
2023-05-08T01:24:22.705Z,98.9561
2023-05-08T01:25:25.573Z,98.9879
2023-05-08T01:26:28.436Z,99.0290
2023-05-08T01:27:31.288Z,99.0635
2023-05-08T01:28:34.179Z,99.1027
2023-05-08T01:29:37.049Z,99.0768
2023-05-08T01:30:39.902Z,99.0796
2023-05-08T01:31:43.026Z,99.0922
2023-05-08T01:32:45.942Z,99.1060
2023-05-08T01:33:48.791Z,99.1135
2023-05-08T01:34:51.669Z,99.0816
2023-05-08T01:35:54.529Z,99.0796
2023-05-08T01:36:57.427Z,99.0527
2023-05-08T01:38:00.255Z,99.0022
2023-05-08T01:39:03.145Z,98.9838
2023-05-08T01:40:05.984Z,99.0134
2023-05-08T01:41:08.857Z,99.0156
2023-05-08T01:42:11.696Z,98.9902
2023-05-08T01:43:14.590Z,98.9253
2023-05-08T01:44:17.702Z,98.8377
2023-05-08T01:45:20.598Z,98.8773
2023-05-08T01:46:23.480Z,98.9485
2023-05-08T01:47:26.344Z,98.9359
2023-05-08T01:48:29.227Z,98.9373
2023-05-08T01:49:32.100Z,98.9456
2023-05-08T01:50:35.031Z,99.0022
2023-05-08T01:51:38.121Z,99.0398
2023-05-08T01:52:40.992Z,99.0689
2023-05-08T01:53:44.112Z,99.1158
2023-05-08T01:54:46.964Z,99.1468
2023-05-08T01:55:49.876Z,99.1735
2023-05-08T01:56:52.992Z,99.1947
2023-05-08T01:57:55.869Z,99.2406
2023-05-08T01:58:58.758Z,99.2743
2023-05-08T02:00:01.689Z,99.3039
2023-05-08T02:01:04.596Z,99.3210
2023-05-08T02:02:07.511Z,99.3372
2023-05-08T02:03:11.128Z,99.3251
2023-05-08T02:04:14.039Z,99.3537
2023-05-08T02:05:25.590Z,99.3573
2023-05-08T02:06:25.721Z,99.3921
2023-05-08T02:07:28.567Z,99.4093
2023-05-08T02:08:31.399Z,99.4198
2023-05-08T02:09:34.300Z,99.4335
2023-05-08T02:10:37.141Z,99.4232
2023-05-08T02:11:40.002Z,99.3972
2023-05-08T02:12:42.940Z,99.3705
2023-05-08T02:13:45.815Z,99.3203
2023-05-08T02:14:48.691Z,99.3235
2023-05-08T02:15:51.571Z,99.3334
2023-05-08T02:16:52.434Z,99.3477
2023-05-08T02:17:55.463Z,99.3575
2023-05-08T02:18:58.361Z,99.3315
2023-05-08T02:20:01.219Z,99.3207
2023-05-08T02:21:04.097Z,99.3336
2023-05-08T02:22:06.983Z,99.3027
2023-05-08T02:23:09.821Z,99.2979
2023-05-08T02:24:12.684Z,99.2369
2023-05-08T02:25:15.560Z,99.2036
2023-05-08T02:26:18.419Z,99.1435
2023-05-08T02:27:21.285Z,99.0270
2023-05-08T02:28:24.162Z,98.9750
2023-05-08T02:29:27.028Z,98.9666
2023-05-08T02:30:29.936Z,98.9452
2023-05-08T02:31:33.101Z,98.9028
2023-05-08T02:32:35.975Z,98.8742
2023-05-08T02:33:38.826Z,98.8549
2023-05-08T02:34:51.231Z,98.8608
2023-05-08T02:35:43.125Z,98.8057
2023-05-08T02:36:46.219Z,98.8271
2023-05-08T02:37:49.094Z,98.7851
2023-05-08T02:38:51.927Z,98.7380
2023-05-08T02:39:54.779Z,98.7008
2023-05-08T02:40:57.717Z,98.5914
2023-05-08T02:42:00.558Z,98.4048
2023-05-08T02:43:03.454Z,98.2916
2023-05-08T02:44:06.351Z,98.3176
2023-05-08T02:45:09.233Z,98.2995
2023-05-08T02:46:12.164Z,98.2646
2023-05-08T02:47:15.118Z,98.2080
2023-05-08T02:48:18.006Z,98.1458
2023-05-08T02:49:20.871Z,98.2021
2023-05-08T02:50:23.762Z,98.2377
2023-05-08T02:51:26.865Z,98.2326
2023-05-08T02:52:29.757Z,98.1701
2023-05-08T02:53:32.665Z,98.1966
2023-05-08T02:54:35.517Z,98.2042
2023-05-08T02:55:38.379Z,98.2825
2023-05-08T02:56:41.228Z,98.3406
2023-05-08T02:57:44.100Z,98.2148
2023-05-08T02:58:46.965Z,98.1642
2023-05-08T02:59:49.814Z,98.1051
2023-05-08T03:00:52.693Z,98.1363
2023-05-08T03:01:55.742Z,98.2044
2023-05-08T03:02:58.682Z,98.1135
2023-05-08T03:04:01.567Z,98.1318
2023-05-08T03:05:04.437Z,98.1800
2023-05-08T03:06:07.374Z,97.9201
2023-05-08T03:07:10.286Z,97.8469
2023-05-08T03:08:13.111Z,97.8793
2023-05-08T03:09:16.001Z,97.9815
2023-05-08T03:10:18.870Z,97.9726
2023-05-08T03:11:21.742Z,97.9104
2023-05-08T03:12:24.611Z,97.8884
2023-05-08T03:13:27.523Z,97.9521
2023-05-08T03:14:30.514Z,97.8672
2023-05-08T03:15:33.384Z,97.5313
2023-05-08T03:16:36.253Z,97.5997
2023-05-08T03:17:39.180Z,97.4136
2023-05-08T03:18:42.099Z,97.2969
2023-05-08T03:19:44.963Z,97.4412
2023-05-08T03:20:47.873Z,97.5584
2023-05-08T03:21:50.694Z,97.4565
2023-05-08T03:22:53.568Z,97.3372
2023-05-08T03:23:56.452Z,97.5143
2023-05-08T03:24:59.348Z,97.6185
2023-05-08T03:26:02.194Z,97.6689
2023-05-08T03:27:02.931Z,97.6595
2023-05-08T03:28:05.793Z,97.6347
2023-05-08T03:29:08.702Z,97.5251
2023-05-08T03:30:11.689Z,97.5935
2023-05-08T03:31:14.656Z,97.7281
2023-05-08T03:32:17.505Z,97.6544
2023-05-08T03:33:20.419Z,97.5319
2023-05-08T03:34:23.294Z,97.5237
2023-05-08T03:35:26.130Z,97.5025
2023-05-08T03:36:29.010Z,97.2073
2023-05-08T03:37:31.860Z,97.3077
2023-05-08T03:38:34.739Z,97.3791
2023-05-08T03:39:37.611Z,97.3648
2023-05-08T03:40:40.457Z,97.3552
2023-05-08T03:41:43.583Z,97.3106
2023-05-08T03:42:46.467Z,97.2576
2023-05-08T03:43:49.340Z,97.1792
2023-05-08T03:44:52.191Z,97.0829
2023-05-08T03:45:55.082Z,96.9604
2023-05-08T03:46:57.992Z,96.8068
2023-05-08T03:48:00.885Z,96.9828
2023-05-08T03:49:03.785Z,97.2082
2023-05-08T03:50:06.617Z,97.4065
2023-05-08T03:51:09.506Z,97.4729
2023-05-08T03:52:12.637Z,97.4828
2023-05-08T03:53:15.539Z,97.5000
2023-05-08T03:54:18.409Z,97.3396
2023-05-08T03:55:21.273Z,97.4144
2023-05-08T03:56:25.909Z,97.5824
2023-05-08T03:57:25.576Z,97.6677
2023-05-08T03:58:28.419Z,97.6975
2023-05-08T03:59:31.274Z,97.6357
2023-05-08T04:00:34.179Z,97.7183
2023-05-08T04:01:37.074Z,97.7690
2023-05-08T04:02:42.107Z,97.6981
2023-05-08T04:03:41.624Z,97.4339
2023-05-08T04:04:44.690Z,97.3289
2023-05-08T04:05:47.584Z,97.5592
2023-05-08T04:06:51.104Z,97.7231
2023-05-08T04:07:50.503Z,97.8076
2023-05-08T04:08:53.376Z,97.7197
2023-05-08T04:09:54.776Z,97.6776
2023-05-08T04:10:57.641Z,97.8617
2023-05-08T04:12:00.537Z,97.9208
2023-05-08T04:13:03.467Z,97.7598
2023-05-08T04:14:06.344Z,97.7751
2023-05-08T04:15:09.202Z,97.9710
2023-05-08T04:16:12.102Z,98.0457
2023-05-08T04:17:15.054Z,98.0319
2023-05-08T04:18:17.898Z,98.0379
2023-05-08T04:19:20.907Z,97.8070
2023-05-08T04:20:24.035Z,97.4140
2023-05-08T04:21:26.970Z,97.0563
2023-05-08T04:22:29.828Z,97.2979
2023-05-08T04:23:32.686Z,97.4994
2023-05-08T04:24:35.541Z,97.7177
2023-05-08T04:25:38.418Z,97.7156
2023-05-08T04:26:41.344Z,96.9445
2023-05-08T04:27:44.356Z,96.9846
2023-05-08T04:28:47.325Z,96.8857
2023-05-08T04:29:50.249Z,96.9222
2023-05-08T04:30:53.143Z,96.8445
2023-05-08T04:31:56.031Z,96.4150
2023-05-08T04:32:58.954Z,96.0929
2023-05-08T04:34:01.818Z,96.4488
2023-05-08T04:35:02.594Z,96.4307
2023-05-08T04:36:05.464Z,96.5921
2023-05-08T04:37:06.210Z,96.3867
2023-05-08T04:38:09.120Z,95.8365
2023-05-08T04:39:12.033Z,95.6024
2023-05-08T04:40:14.914Z,95.2425
2023-05-08T04:41:17.792Z,94.9058
2023-05-08T04:42:20.648Z,95.4647
2023-05-08T04:43:23.563Z,95.6304
2023-05-08T04:44:26.447Z,94.9224
2023-05-08T04:45:29.373Z,94.7386
2023-05-08T04:46:32.262Z,94.9833
2023-05-08T04:47:35.263Z,94.4021
2023-05-08T04:48:38.125Z,94.8328
2023-05-08T04:49:41.007Z,95.1329
2023-05-08T04:50:43.912Z,94.9801
2023-05-08T04:51:46.806Z,95.1238
2023-05-08T04:52:49.908Z,95.3601
2023-05-08T04:53:52.806Z,95.6059
2023-05-08T04:54:55.691Z,94.9093
2023-05-08T04:55:58.608Z,94.1510
2023-05-08T04:57:01.459Z,94.8400
2023-05-08T04:58:04.484Z,95.1091
2023-05-08T04:59:07.329Z,95.4242
2023-05-08T05:00:10.223Z,95.3290
2023-05-08T05:01:13.141Z,95.3672
2023-05-08T05:02:13.870Z,95.1864
2023-05-08T05:03:16.813Z,94.6289
2023-05-08T05:04:19.715Z,94.7111
2023-05-08T05:05:22.631Z,94.2636
2023-05-08T05:06:25.498Z,94.5832
2023-05-08T05:07:28.385Z,94.9409
2023-05-08T05:08:31.237Z,94.9431
2023-05-08T05:09:34.107Z,94.5660
2023-05-08T05:10:37.187Z,94.6292
2023-05-08T05:11:40.069Z,94.2649
2023-05-08T05:12:43.240Z,94.4871
2023-05-08T05:13:46.076Z,94.7205
2023-05-08T05:14:48.998Z,94.4071
2023-05-08T05:15:51.874Z,94.4236
2023-05-08T05:16:54.709Z,94.3741
2023-05-08T05:17:57.623Z,94.4425
2023-05-08T05:19:00.505Z,93.6275
2023-05-08T05:20:03.394Z,93.6123
2023-05-08T05:21:06.272Z,93.9248
2023-05-08T05:22:09.171Z,94.3293
2023-05-08T05:23:12.014Z,94.6884
2023-05-08T05:24:14.981Z,94.5657
2023-05-08T05:25:17.873Z,94.6624
2023-05-08T05:26:20.705Z,94.6358
2023-05-08T05:27:24.087Z,94.2815
2023-05-08T05:28:26.977Z,94.2980
2023-05-08T05:29:29.907Z,94.3266
2023-05-08T05:30:32.798Z,94.4960
2023-05-08T05:31:35.765Z,94.0376
2023-05-08T05:32:38.620Z,92.7606
2023-05-08T05:33:41.489Z,93.3580
2023-05-08T05:34:44.412Z,93.3431
2023-05-08T05:35:47.266Z,93.4423
2023-05-08T05:36:50.105Z,93.1066
2023-05-08T05:37:53.298Z,92.7971
2023-05-08T05:38:56.157Z,93.5543
2023-05-08T05:39:56.858Z,93.4621
2023-05-08T05:40:59.713Z,93.6253
2023-05-08T05:42:03.241Z,94.1075
2023-05-08T05:43:06.073Z,94.0453
2023-05-08T05:44:08.958Z,94.0960
2023-05-08T05:45:11.970Z,93.7961
2023-05-08T05:46:14.926Z,94.1427
2023-05-08T05:47:18.247Z,94.3430
2023-05-08T05:48:28.885Z,94.5340
2023-05-08T05:49:31.750Z,94.6636
2023-05-08T05:50:34.621Z,94.9270
2023-05-08T05:51:37.494Z,95.0663
2023-05-08T05:52:40.387Z,95.3035
2023-05-08T05:53:43.298Z,95.6965
2023-05-08T05:54:46.167Z,95.8191
2023-05-08T05:55:49.279Z,96.0065
2023-05-08T05:56:52.160Z,95.7853
2023-05-08T05:57:55.290Z,95.8030
2023-05-08T05:58:58.170Z,95.3080
2023-05-08T06:00:01.047Z,94.5500
2023-05-08T06:01:03.915Z,94.0938
2023-05-08T06:02:06.860Z,93.6867
2023-05-08T06:03:09.884Z,93.6013
2023-05-08T06:04:12.771Z,94.8719
2023-05-08T06:05:15.641Z,95.5993
2023-05-08T06:06:18.528Z,95.7410
2023-05-08T06:07:21.415Z,95.1914
2023-05-08T06:08:24.267Z,95.1631
2023-05-08T06:09:27.137Z,95.5317
2023-05-08T06:10:30.020Z,95.7617
2023-05-08T06:11:32.906Z,95.6418
2023-05-08T06:12:35.796Z,95.5226
2023-05-08T06:13:38.634Z,95.3099
2023-05-08T06:14:41.497Z,95.5221
2023-05-08T06:15:44.394Z,95.1439
2023-05-08T06:16:47.304Z,94.9411
2023-05-08T06:17:50.180Z,94.7788
2023-05-08T06:18:53.028Z,94.3312
2023-05-08T06:19:55.911Z,94.7597
2023-05-08T06:20:58.911Z,95.1970
2023-05-08T06:22:01.788Z,95.6457
2023-05-08T06:23:04.666Z,95.9538
2023-05-08T06:24:07.530Z,95.5776
2023-05-08T06:25:10.562Z,95.8390
2023-05-08T06:26:13.482Z,95.7946
2023-05-08T06:27:16.363Z,95.2029
2023-05-08T06:28:19.471Z,94.8213
2023-05-08T06:29:22.337Z,95.5619
2023-05-08T06:30:25.193Z,95.9388
2023-05-08T06:31:28.091Z,95.8323
2023-05-08T06:32:30.936Z,95.4461
2023-05-08T06:33:33.845Z,94.3963
2023-05-08T06:34:36.713Z,95.3605
2023-05-08T06:35:39.566Z,95.2855
2023-05-08T06:36:42.438Z,95.0735
2023-05-08T06:37:45.311Z,95.3006
2023-05-08T06:38:48.198Z,94.6026
2023-05-08T06:40:00.317Z,94.6690
2023-05-08T06:40:52.552Z,94.7172
2023-05-08T06:41:55.430Z,94.6829
2023-05-08T06:42:58.310Z,94.4049
2023-05-08T06:44:01.210Z,93.9012
2023-05-08T06:45:04.098Z,94.3771
2023-05-08T06:46:06.968Z,94.3748
2023-05-08T06:47:09.872Z,94.3570
2023-05-08T06:48:12.740Z,93.9401
2023-05-08T06:49:15.609Z,93.8026
2023-05-08T06:50:18.471Z,93.1921
2023-05-08T06:51:21.348Z,91.6021
2023-05-08T06:52:24.218Z,91.8779
2023-05-08T06:53:27.092Z,91.8723
2023-05-08T06:54:29.948Z,92.5323
2023-05-08T06:55:32.832Z,92.7054
2023-05-08T06:56:35.715Z,92.7203
2023-05-08T06:57:38.585Z,93.4161
2023-05-08T06:58:41.456Z,93.5646
2023-05-08T06:59:44.356Z,93.4158
2023-05-08T07:00:47.202Z,93.5972
2023-05-08T07:01:50.088Z,93.9230
2023-05-08T07:02:53.101Z,94.0462
2023-05-08T07:03:56.006Z,94.2841
2023-05-08T07:04:58.941Z,94.5720
2023-05-08T07:06:01.868Z,94.7847
2023-05-08T07:07:04.734Z,94.4174
2023-05-08T07:08:07.674Z,94.3187
2023-05-08T07:09:10.552Z,94.1432
2023-05-08T07:10:13.434Z,93.9899
2023-05-08T07:11:16.536Z,93.8842
2023-05-08T07:12:19.407Z,93.7130
2023-05-08T07:13:20.196Z,93.0943
2023-05-08T07:14:23.105Z,92.4139
2023-05-08T07:15:26.935Z,92.2552
2023-05-08T07:16:26.366Z,92.0377
2023-05-08T07:17:29.236Z,92.1854
2023-05-08T07:18:32.066Z,92.0827
2023-05-08T07:19:34.921Z,92.0462
2023-05-08T07:20:37.830Z,91.8327
2023-05-08T07:21:40.777Z,89.9422
2023-05-08T07:22:43.623Z,89.3532
2023-05-08T07:23:46.528Z,89.8583
2023-05-08T07:24:49.399Z,90.4007
2023-05-08T07:25:52.250Z,90.7851
2023-05-08T07:26:55.151Z,91.0527
2023-05-08T07:28:01.023Z,90.6744
2023-05-08T07:29:00.525Z,90.9799
2023-05-08T07:30:03.384Z,90.1696
2023-05-08T07:31:06.259Z,89.9106
2023-05-08T07:32:09.120Z,89.7597
2023-05-08T07:33:12.068Z,91.1409
2023-05-08T07:34:14.952Z,91.2017
2023-05-08T07:35:17.890Z,90.9964
2023-05-08T07:36:20.744Z,90.8005
2023-05-08T07:37:23.622Z,90.4013
2023-05-08T07:38:26.532Z,90.9955
2023-05-08T07:39:29.437Z,90.7235
2023-05-08T07:40:32.312Z,91.0005
2023-05-08T07:41:35.285Z,89.8475
2023-05-08T07:42:38.165Z,89.7761
2023-05-08T07:43:41.082Z,89.1676
2023-05-08T07:44:53.593Z,88.7545
2023-05-08T07:45:45.449Z,88.6894
2023-05-08T07:46:48.386Z,88.8740
2023-05-08T07:47:51.329Z,89.5905
2023-05-08T07:48:54.258Z,89.3318
2023-05-08T07:49:57.164Z,88.0755
2023-05-08T07:51:00.184Z,88.0779
2023-05-08T07:52:03.072Z,88.0999
2023-05-08T07:53:05.985Z,87.5291
2023-05-08T07:54:08.904Z,88.7814
2023-05-08T07:55:12.038Z,88.4067
2023-05-08T07:56:13.182Z,88.0678
2023-05-08T07:57:16.127Z,87.7350
2023-05-08T07:58:19.038Z,88.1918
2023-05-08T07:59:21.950Z,88.8068
2023-05-08T08:00:24.860Z,89.1669
2023-05-08T08:01:27.799Z,88.6355
2023-05-08T08:02:30.847Z,87.7968
2023-05-08T08:03:34.050Z,86.3696
2023-05-08T08:04:37.154Z,85.9455
2023-05-08T08:05:40.086Z,86.9136
2023-05-08T08:06:43.033Z,86.0129
2023-05-08T08:07:45.910Z,85.7579
2023-05-08T08:08:48.831Z,86.3738
2023-05-08T08:09:51.698Z,85.9933
2023-05-08T08:10:54.612Z,86.2335
2023-05-08T08:11:57.497Z,85.7804
2023-05-08T08:13:00.433Z,84.4945
2023-05-08T08:14:03.304Z,83.9460
2023-05-08T08:15:06.207Z,84.3536
2023-05-08T08:16:09.145Z,84.7064
2023-05-08T08:17:12.174Z,82.8688
2023-05-08T08:18:15.389Z,82.6969
2023-05-08T08:19:18.335Z,82.6590
2023-05-08T08:20:21.219Z,83.3744
2023-05-08T08:21:24.139Z,83.1231
2023-05-08T08:22:27.047Z,81.6019
2023-05-08T08:23:30.273Z,81.7696
2023-05-08T08:24:33.159Z,81.4884
2023-05-08T08:25:36.332Z,78.9822
2023-05-08T08:26:39.237Z,79.1348
2023-05-08T08:27:42.121Z,80.1031
2023-05-08T08:28:45.067Z,81.5123
2023-05-08T08:29:47.984Z,81.7822
2023-05-08T08:30:50.926Z,79.4864
2023-05-08T08:31:53.843Z,80.5517
2023-05-08T08:32:56.744Z,79.9518
2023-05-08T08:33:59.640Z,78.7665
2023-05-08T08:35:02.567Z,79.2915
2023-05-08T08:36:05.454Z,79.9004
2023-05-08T08:37:08.363Z,78.3381
2023-05-08T08:38:11.281Z,77.9528
2023-05-08T08:39:15.422Z,77.5060
2023-05-08T08:40:14.651Z,78.0284
2023-05-08T08:41:17.577Z,79.1965
2023-05-08T08:42:20.465Z,78.9898
2023-05-08T08:43:23.382Z,78.4456
2023-05-08T08:44:26.333Z,77.4146
2023-05-08T08:45:29.212Z,77.4268
2023-05-08T08:46:32.142Z,77.3744
2023-05-08T08:47:35.094Z,76.8923
2023-05-08T08:48:38.006Z,75.7083
2023-05-08T08:49:40.892Z,74.9683
2023-05-08T08:50:43.873Z,73.4101
2023-05-08T08:51:46.737Z,73.3805
2023-05-08T08:52:49.639Z,73.7442
2023-05-08T08:53:52.018Z,72.2111
2023-05-08T08:54:54.920Z,72.2230
2023-05-08T08:55:57.834Z,73.4927
2023-05-08T08:57:00.747Z,71.5004
2023-05-08T08:58:03.659Z,68.8091
2023-05-08T08:59:06.590Z,69.9238
2023-05-08T09:00:09.558Z,70.3287
2023-05-08T09:01:12.490Z,70.2505
2023-05-08T09:02:15.483Z,72.4647
2023-05-08T09:03:18.459Z,72.6821
2023-05-08T09:04:21.470Z,72.7111
2023-05-08T09:05:24.342Z,73.7535
2023-05-08T09:06:27.285Z,73.4156
2023-05-08T09:07:30.127Z,73.4425
2023-05-08T09:08:33.007Z,73.9319
2023-05-08T09:09:35.984Z,73.1586
2023-05-08T09:10:38.844Z,72.5301
2023-05-08T09:11:41.745Z,72.9913
2023-05-08T09:12:44.647Z,73.9285
2023-05-08T09:13:47.531Z,74.4349
2023-05-08T09:14:50.449Z,74.1502
2023-05-08T09:15:53.390Z,74.3275
2023-05-08T09:16:56.303Z,75.2448
2023-05-08T09:17:59.213Z,75.1854
2023-05-08T09:19:03.342Z,73.7166
2023-05-08T09:20:03.040Z,72.7478
2023-05-08T09:21:05.982Z,72.2846
2023-05-08T09:22:08.941Z,74.5606
2023-05-08T09:23:11.798Z,75.6173
2023-05-08T09:24:14.710Z,74.4753
2023-05-08T09:25:17.638Z,74.0083
2023-05-08T09:26:20.535Z,74.6596
2023-05-08T09:27:23.455Z,72.0405
2023-05-08T09:28:26.601Z,71.1550
2023-05-08T09:29:29.550Z,71.1744
2023-05-08T09:30:32.470Z,71.6263
2023-05-08T09:31:35.394Z,72.7644
2023-05-08T09:32:38.319Z,73.9311
2023-05-08T09:33:41.185Z,73.3366
2023-05-08T09:34:44.100Z,75.5773
2023-05-08T09:35:47.009Z,75.5150
2023-05-08T09:36:50.042Z,75.1416
2023-05-08T09:37:53.305Z,71.4294
2023-05-08T09:38:53.426Z,71.7006
2023-05-08T09:39:56.410Z,71.4049
2023-05-08T09:40:59.287Z,73.9872
2023-05-08T09:42:02.184Z,74.1189
2023-05-08T09:43:05.166Z,76.3901
2023-05-08T09:44:08.030Z,77.3057
2023-05-08T09:45:11.222Z,79.8277
2023-05-08T09:46:14.356Z,81.5133
2023-05-08T09:47:17.264Z,80.7015
2023-05-08T09:48:20.153Z,81.5281
2023-05-08T09:49:23.070Z,81.2922
2023-05-08T09:50:26.016Z,80.1039
2023-05-08T09:51:26.802Z,79.6527
2023-05-08T09:52:29.725Z,82.5828
2023-05-08T09:53:32.916Z,84.0916
2023-05-08T09:54:35.852Z,82.9014
2023-05-08T09:55:38.754Z,80.4117
2023-05-08T09:56:41.662Z,78.3524
2023-05-08T09:57:44.557Z,74.2245
2023-05-08T09:58:47.479Z,74.9923
2023-05-08T09:59:50.387Z,75.9489
2023-05-08T10:00:53.342Z,74.6610
2023-05-08T10:01:56.237Z,77.0255
2023-05-08T10:02:59.324Z,76.5682
2023-05-08T10:04:02.496Z,75.6059
2023-05-08T10:05:05.428Z,75.6552
2023-05-08T10:06:08.307Z,75.0501
2023-05-08T10:07:11.211Z,75.4035
2023-05-08T10:08:14.104Z,76.5230
2023-05-08T10:09:17.042Z,75.2167
2023-05-08T10:10:19.924Z,76.3210
2023-05-08T10:11:22.842Z,77.1759
2023-05-08T10:12:25.810Z,75.8267
2023-05-08T10:13:28.717Z,74.3055
2023-05-08T10:14:31.607Z,69.8254
2023-05-08T10:15:34.523Z,68.6797
2023-05-08T10:16:37.432Z,70.3167
2023-05-08T10:17:40.373Z,70.9287
2023-05-08T10:18:43.298Z,69.8093
2023-05-08T10:19:46.235Z,67.6807
2023-05-08T10:20:49.133Z,70.6325
2023-05-08T10:21:52.020Z,71.0950
2023-05-08T10:22:54.913Z,73.0625
2023-05-08T10:23:57.878Z,71.7100
2023-05-08T10:25:00.830Z,68.8098
2023-05-08T10:26:03.819Z,69.9175
2023-05-08T10:27:07.755Z,72.2003
2023-05-08T10:28:07.183Z,75.9417
2023-05-08T10:29:10.143Z,74.8504
2023-05-08T10:30:13.240Z,73.9342
2023-05-08T10:31:16.698Z,73.0760
2023-05-08T10:32:19.630Z,73.0939
2023-05-08T10:33:22.516Z,73.0692
2023-05-08T10:34:25.389Z,74.3607
2023-05-08T10:35:28.389Z,75.1097
2023-05-08T10:36:31.302Z,75.0493
2023-05-08T10:37:34.213Z,74.8116
2023-05-08T10:38:37.274Z,75.0659
2023-05-08T10:39:40.155Z,75.3595
2023-05-08T10:40:43.088Z,73.1335
2023-05-08T10:41:45.948Z,72.6150
2023-05-08T10:42:48.853Z,73.0586
2023-05-08T10:43:51.728Z,74.1394
2023-05-08T10:44:54.653Z,76.5763
2023-05-08T10:45:57.587Z,74.8259
2023-05-08T10:47:00.487Z,73.0281
2023-05-08T10:48:03.482Z,72.8554
2023-05-08T10:49:06.435Z,70.8759
2023-05-08T10:50:09.356Z,69.3428
2023-05-08T10:51:12.351Z,67.3813
2023-05-08T10:52:15.260Z,67.4331
2023-05-08T10:53:18.211Z,65.9388
2023-05-08T10:54:21.128Z,65.5413
2023-05-08T10:55:24.088Z,65.3058
2023-05-08T10:56:27.048Z,66.4700
2023-05-08T10:57:29.987Z,65.8818
2023-05-08T10:58:32.875Z,68.3631
2023-05-08T10:59:35.817Z,68.9562
2023-05-08T11:00:38.716Z,69.6705
2023-05-08T11:01:41.639Z,68.2753
2023-05-08T11:02:44.586Z,67.2571
2023-05-08T11:03:47.585Z,70.2301
2023-05-08T11:04:50.535Z,72.3061
2023-05-08T11:05:53.483Z,70.6943
2023-05-08T11:06:56.372Z,71.1210
2023-05-08T11:07:59.369Z,71.8914
2023-05-08T11:09:02.262Z,68.8469
2023-05-08T11:10:05.155Z,68.9151
2023-05-08T11:11:08.089Z,70.3179
2023-05-08T11:12:10.979Z,69.8461
2023-05-08T11:13:13.919Z,68.2759
2023-05-08T11:14:16.831Z,69.1503
2023-05-08T11:15:19.767Z,69.4499
2023-05-08T11:16:22.765Z,69.6827
2023-05-08T11:17:25.680Z,69.8098
2023-05-08T11:18:41.786Z,72.5539
2023-05-08T11:19:30.230Z,73.7713
2023-05-08T11:20:33.111Z,74.3305
2023-05-08T11:21:36.046Z,75.1423
2023-05-08T11:22:38.952Z,76.2790
2023-05-08T11:23:41.909Z,76.4479
2023-05-08T11:24:44.766Z,76.5900
2023-05-08T11:25:47.690Z,74.8126
2023-05-08T11:26:50.617Z,75.8747
2023-05-08T11:27:53.535Z,77.1492
2023-05-08T11:28:56.492Z,75.7985
2023-05-08T11:29:59.397Z,74.4381
2023-05-08T11:31:02.335Z,74.5741
2023-05-08T11:32:05.386Z,74.7162
2023-05-08T11:33:08.461Z,74.8131
2023-05-08T11:34:11.397Z,73.9012
2023-05-08T11:35:14.317Z,73.9638
2023-05-08T11:36:17.267Z,73.8861
2023-05-08T11:37:20.245Z,73.3504
2023-05-08T11:38:23.163Z,74.2097
2023-05-08T11:39:26.054Z,74.9712
2023-05-08T11:40:28.969Z,74.4008
2023-05-08T11:41:32.250Z,72.4917
2023-05-08T11:42:35.225Z,72.0729
2023-05-08T11:43:38.168Z,73.0913
2023-05-08T11:44:41.090Z,73.6822
2023-05-08T11:45:44.008Z,71.3096
2023-05-08T11:46:46.964Z,69.5638
2023-05-08T11:47:49.899Z,68.3325
2023-05-08T11:48:52.798Z,70.2265
2023-05-08T11:49:55.715Z,71.4135
2023-05-08T11:50:58.601Z,71.4691
2023-05-08T11:52:01.510Z,74.2763
2023-05-08T11:53:04.400Z,73.0905
2023-05-08T11:54:07.344Z,74.7777
2023-05-08T11:55:10.223Z,75.8114
2023-05-08T11:56:13.176Z,74.3136
2023-05-08T11:57:16.097Z,74.8042
2023-05-08T11:58:19.033Z,73.2653
2023-05-08T11:59:22.156Z,69.8533
2023-05-08T12:00:25.077Z,69.8486
2023-05-08T12:01:28.000Z,70.4415
2023-05-08T12:02:33.351Z,70.0737
2023-05-08T12:03:33.351Z,69.2775
2023-05-08T12:04:36.377Z,69.5675
2023-05-08T12:05:39.331Z,68.0687
2023-05-08T12:06:40.102Z,67.0315
2023-05-08T12:07:43.052Z,67.1922
2023-05-08T12:08:45.938Z,68.6319
2023-05-08T12:09:48.865Z,69.6936
2023-05-08T12:10:51.766Z,70.9411
2023-05-08T12:11:54.664Z,70.0219
2023-05-08T12:12:57.579Z,68.5131
2023-05-08T12:14:00.489Z,68.9337
2023-05-08T12:15:03.393Z,68.9249
2023-05-08T12:16:06.312Z,69.6186
2023-05-08T12:17:09.272Z,69.3700
2023-05-08T12:18:12.160Z,67.2873
2023-05-08T12:19:15.325Z,67.4638
2023-05-08T12:20:18.404Z,66.3530
2023-05-08T12:21:21.618Z,64.3968
2023-05-08T12:22:24.548Z,62.6157
2023-05-08T12:23:27.456Z,62.2325
2023-05-08T12:24:30.353Z,64.4719
2023-05-08T12:25:33.232Z,65.3601
2023-05-08T12:26:36.207Z,64.1086
2023-05-08T12:27:39.125Z,61.8244
2023-05-08T12:28:42.020Z,60.3370
2023-05-08T12:29:44.953Z,59.4459
2023-05-08T12:30:47.879Z,59.9061
2023-05-08T12:31:50.759Z,63.3498
2023-05-08T12:32:53.701Z,64.3354
2023-05-08T12:33:56.578Z,63.0505
2023-05-08T12:34:59.504Z,61.4382
2023-05-08T12:36:02.410Z,58.3331
2023-05-08T12:37:05.377Z,57.9778
2023-05-08T12:38:08.304Z,58.5395
2023-05-08T12:39:11.221Z,61.5926
2023-05-08T12:40:14.344Z,65.3696